Time;durP1;ratioP1;P1;durP2;ratioP2;P2;SDS_P1;SDS_P2;PMS_P1;PMS_P2;Temp;Humidity;BMP_temperature;BMP_pressure;BME280_temperature;BME280_humidity;BME280_pressure;Samples;Min_cycle;Max_cycle;Signal;HPM_P1;HPM_P2
2022/06/05 00:01:07;;;;;;;21.92;12.75;;;;;;;17.98;60.23;101602.56;5031467;28;20021;-55
2022/06/05 00:03:44;;;;;;;23.02;13.45;;;;;;;17.96;60.60;101599.25;5031124;28;20032;-55
2022/06/05 00:06:44;;;;;;;20.85;13.15;;;;;;;17.90;60.47;101578.22;5030711;28;20396;-55
2022/06/05 00:09:30;;;;;;;20.10;13.27;;;;;;;17.91;60.66;101591.00;5031400;28;20029;-55
2022/06/05 00:11:56;;;;;;;21.23;13.55;;;;;;;17.90;61.05;101595.00;5031633;28;20088;-55
2022/06/05 00:14:21;;;;;;;20.35;13.15;;;;;;;17.80;61.40;101589.78;5031806;28;20110;-54
2022/06/05 00:16:47;;;;;;;20.70;13.15;;;;;;;17.77;61.57;101589.28;5031605;28;20480;-55
2022/06/05 00:19:12;;;;;;;19.40;13.07;;;;;;;17.70;61.91;101574.19;5031694;28;20392;-55
2022/06/05 00:21:38;;;;;;;20.20;13.15;;;;;;;17.68;62.10;101566.13;5031334;28;20502;-57
2022/06/05 00:24:03;;;;;;;20.67;13.25;;;;;;;17.67;62.25;101575.69;5031450;28;20100;-55
2022/06/05 00:26:46;;;;;;;20.60;13.13;;;;;;;17.67;61.28;101566.44;5031278;28;20049;-57
2022/06/05 00:29:15;;;;;;;20.80;13.15;;;;;;;17.69;61.89;101576.19;5031782;28;20022;-57
2022/06/05 00:31:50;;;;;;;20.95;13.25;;;;;;;17.63;62.22;101577.50;5031612;28;20017;-57
2022/06/05 00:34:15;;;;;;;21.58;13.27;;;;;;;17.61;62.53;101577.03;5063193;28;20100;-57
2022/06/05 00:37:12;;;;;;;20.00;13.60;;;;;;;17.63;61.85;101571.91;5071300;28;20107;-57
2022/06/05 00:39:40;;;;;;;22.85;13.88;;;;;;;17.57;62.54;101562.88;5071006;28;20059;-57
2022/06/05 00:42:11;;;;;;;22.08;13.93;;;;;;;17.46;62.89;101547.66;5069401;28;20418;-57
2022/06/05 00:44:46;;;;;;;20.77;13.98;;;;;;;17.42;63.09;101558.69;5071134;28;20482;-57
2022/06/05 00:47:16;;;;;;;20.95;13.70;;;;;;;17.35;62.87;101546.38;5071216;28;20031;-58
2022/06/05 00:49:51;;;;;;;21.02;13.35;;;;;;;17.28;63.25;101546.91;5069839;28;20112;-56
2022/06/05 00:52:18;;;;;;;21.50;14.13;;;;;;;17.22;63.55;101539.88;5071399;28;20036;-57
2022/06/05 00:54:43;;;;;;;19.75;13.55;;;;;;;17.27;63.61;101548.06;5071317;28;20486;-57
2022/06/05 00:57:12;;;;;;;19.52;13.63;;;;;;;17.21;63.93;101543.81;5074258;28;20020;-56
2022/06/05 00:59:40;;;;;;;20.77;13.77;;;;;;;17.19;64.05;101541.34;5075488;28;20440;-58
2022/06/05 01:02:07;;;;;;;22.05;13.95;;;;;;;17.16;63.86;101539.22;5075502;28;20116;-57
2022/06/05 01:04:34;;;;;;;21.65;13.70;;;;;;;17.13;63.98;101543.50;5075402;28;20036;-57
2022/06/05 01:06:59;;;;;;;21.48;13.57;;;;;;;17.15;63.90;101557.16;5075771;28;20025;-55
2022/06/05 01:09:25;;;;;;;21.83;14.55;;;;;;;17.11;63.81;101548.63;5075367;28;20035;-57
2022/06/05 01:12:04;;;;;;;23.40;13.68;;;;;;;17.15;63.65;101554.34;5075448;28;20086;-58
2022/06/05 01:14:56;;;;;;;21.65;14.00;;;;;;;17.09;63.82;101542.53;5073832;28;20035;-57
2022/06/05 01:17:46;;;;;;;21.27;13.80;;;;;;;17.03;63.39;101523.47;5075521;28;20021;-56
2022/06/05 01:20:49;;;;;;;21.92;14.10;;;;;;;17.07;63.92;101539.25;5075102;28;20124;-57
2022/06/05 01:23:39;;;;;;;21.90;13.77;;;;;;;17.03;63.68;101531.84;5074976;28;20020;-55
2022/06/05 01:26:16;;;;;;;21.50;14.07;;;;;;;17.00;64.12;101534.16;5074898;28;20052;-54
2022/06/05 01:28:50;;;;;;;20.60;13.73;;;;;;;17.02;64.03;101527.41;5074556;28;20029;-54
2022/06/05 01:31:22;;;;;;;21.63;14.20;;;;;;;16.95;63.68;101508.38;5035092;28;20139;-55
2022/06/05 01:34:00;;;;;;;21.65;13.65;;;;;;;17.04;63.48;101519.53;5035088;28;20037;-55
2022/06/05 01:36:34;;;;;;;21.35;13.75;;;;;;;17.02;63.70;101517.06;5034888;28;20029;-57
2022/06/05 01:39:09;;;;;;;20.75;13.63;;;;;;;17.02;63.49;101507.84;5034947;28;20026;-54
2022/06/05 01:41:45;;;;;;;20.92;13.60;;;;;;;16.98;63.37;101505.75;5034989;28;20026;-55
2022/06/05 01:44:17;;;;;;;21.20;13.60;;;;;;;17.00;63.69;101514.59;5034796;28;20043;-57
2022/06/05 01:46:43;;;;;;;20.90;13.65;;;;;;;17.05;63.58;101521.16;5034594;28;20113;-56
2022/06/05 01:49:46;;;;;;;20.88;13.65;;;;;;;17.07;63.21;101532.84;5034531;28;20108;-56
2022/06/05 01:52:28;;;;;;;21.75;14.00;;;;;;;17.07;62.46;101535.63;5011851;28;20041;-57
2022/06/05 01:55:02;;;;;;;22.02;13.38;;;;;;;17.14;63.02;101555.50;5034446;28;20473;-57
2022/06/05 01:57:30;;;;;;;20.75;13.65;;;;;;;17.13;62.97;101543.50;5034579;28;20040;-56
2022/06/05 02:00:22;;;;;;;21.95;13.88;;;;;;;17.14;62.74;101547.94;5034585;28;20056;-56
2022/06/05 02:03:00;;;;;;;20.60;13.73;;;;;;;17.18;62.88;101566.84;5032348;28;20579;-52
2022/06/05 02:05:38;;;;;;;20.30;14.07;;;;;;;17.19;62.60;101554.50;5034591;28;20072;-54
2022/06/05 02:08:13;;;;;;;20.98;13.73;;;;;;;17.11;62.65;101531.00;5033200;28;20029;-55
2022/06/05 02:10:45;;;;;;;20.90;14.23;;;;;;;16.98;63.28;101497.34;5034222;28;20434;-54
2022/06/05 02:13:11;;;;;;;20.83;13.93;;;;;;;17.04;63.74;101503.59;5034238;28;20060;-53
2022/06/05 02:15:36;;;;;;;21.10;13.98;;;;;;;17.03;63.47;101496.34;5034159;28;20132;-52
2022/06/05 02:18:02;;;;;;;20.65;13.57;;;;;;;17.02;63.19;101485.50;5034072;28;20451;-54
2022/06/05 02:20:28;;;;;;;21.38;13.77;;;;;;;17.06;62.96;101494.84;5034025;28;20033;-54
2022/06/05 02:22:54;;;;;;;20.98;13.85;;;;;;;17.04;63.03;101489.63;5033754;28;20032;-51
2022/06/05 02:25:24;;;;;;;20.38;13.75;;;;;;;17.01;63.08;101481.88;5047247;23;20495;-57
2022/06/05 02:27:50;;;;;;;21.52;14.00;;;;;;;16.97;63.15;101481.75;5034247;28;20511;-57
2022/06/05 02:30:17;;;;;;;20.27;13.43;;;;;;;16.93;63.10;101479.91;5034589;28;20034;-57
2022/06/05 02:32:53;;;;;;;21.38;14.38;;;;;;;16.82;63.44;101457.94;5034345;28;20029;-57
2022/06/05 02:35:18;;;;;;;21.60;13.63;;;;;;;16.78;63.66;101456.13;5034297;28;20044;-56
2022/06/05 02:38:14;;;;;;;21.63;13.70;;;;;;;16.64;63.68;101442.38;5034036;28;20033;-57
2022/06/05 02:41:03;;;;;;;21.13;13.77;;;;;;;16.60;63.93;101433.00;5034332;28;20033;-57
2022/06/05 02:46:46;;;;;;;20.60;13.98;;;;;;;16.48;64.26;101437.31;5034431;28;20053;-56
2022/06/05 02:49:24;;;;;;;21.17;13.90;;;;;;;16.52;64.16;101437.47;5034015;28;20029;-55
2022/06/05 02:51:51;;;;;;;20.45;13.70;;;;;;;16.48;63.93;101433.69;5033945;28;20048;-56
2022/06/05 02:54:20;;;;;;;20.40;14.43;;;;;;;16.40;63.93;101418.59;5033766;28;20120;-56
2022/06/05 02:56:45;;;;;;;19.90;13.23;;;;;;;16.43;64.29;101425.50;5032539;28;20388;-55
2022/06/05 02:59:10;;;;;;;22.52;13.90;;;;;;;16.44;64.25;101424.34;5033913;28;20108;-55
2022/06/05 03:04:19;;;;;;;22.17;14.15;;;;;;;16.42;64.50;101424.69;5034254;28;20040;-53
2022/06/05 03:06:45;;;;;;;19.42;13.25;;;;;;;16.42;64.23;101412.69;5033468;28;20029;-51
2022/06/05 03:09:11;;;;;;;20.67;13.35;;;;;;;16.37;64.43;101411.72;5033912;28;20029;-52
2022/06/05 03:11:36;;;;;;;21.48;13.48;;;;;;;16.36;64.58;101403.69;5033588;28;20037;-53
2022/06/05 03:14:01;;;;;;;21.58;13.65;;;;;;;16.33;65.03;101404.34;5033316;28;20097;-52
2022/06/05 03:16:28;;;;;;;22.02;13.88;;;;;;;16.30;64.96;101402.19;5033174;28;20029;-53
2022/06/05 03:18:53;;;;;;;22.15;14.75;;;;;;;16.31;64.91;101396.31;5032889;28;20048;-50
2022/06/05 03:21:19;;;;;;;21.73;14.45;;;;;;;16.32;65.05;101395.16;5032914;28;20029;-53
2022/06/05 03:23:44;;;;;;;20.75;13.95;;;;;;;16.29;65.13;101389.41;5033339;28;20039;-53
2022/06/05 03:26:10;;;;;;;22.33;13.90;;;;;;;16.25;65.39;101385.63;5032738;28;20052;-53
2022/06/05 03:28:36;;;;;;;22.67;13.85;;;;;;;16.18;65.50;101375.81;5032858;28;20053;-51
2022/06/05 03:31:06;;;;;;;21.33;13.90;;;;;;;16.18;65.60;101372.19;5032809;28;20061;-52
2022/06/05 03:33:31;;;;;;;22.33;14.05;;;;;;;16.17;65.79;101374.16;5033027;28;20100;-53
2022/06/05 03:35:56;;;;;;;21.73;13.93;;;;;;;16.21;66.09;101371.53;5032657;28;20105;-54
2022/06/05 03:38:22;;;;;;;22.65;14.43;;;;;;;16.14;66.31;101374.00;5032828;28;20465;-53
2022/06/05 03:40:47;;;;;;;22.08;14.38;;;;;;;16.09;66.64;101363.84;5032663;28;20029;-54
2022/06/05 03:43:14;;;;;;;23.00;14.70;;;;;;;16.04;66.64;101373.22;5032566;28;20036;-53
2022/06/05 03:45:39;;;;;;;21.50;14.23;;;;;;;16.00;67.12;101372.22;5032293;28;20093;-52
2022/06/05 03:48:05;;;;;;;21.67;14.40;;;;;;;16.00;67.05;101366.63;5031657;28;20112;-53
2022/06/05 03:50:31;;;;;;;22.02;14.32;;;;;;;15.96;67.26;101368.47;5031876;28;20036;-53
2022/06/05 03:52:57;;;;;;;22.13;14.45;;;;;;;15.94;67.34;101361.53;5031433;28;20060;-53
2022/06/05 03:55:23;;;;;;;21.67;14.20;;;;;;;15.95;67.41;101372.41;5032314;28;20051;-52
2022/06/05 03:57:49;;;;;;;24.15;15.02;;;;;;;15.96;66.92;101364.84;5031696;28;20388;-53
2022/06/05 04:00:17;;;;;;;22.02;14.65;;;;;;;15.97;67.18;101375.66;5032288;28;20104;-51
2022/06/05 04:02:43;;;;;;;21.50;14.20;;;;;;;15.93;67.33;101379.44;5032138;28;20030;-53
2022/06/05 04:05:13;;;;;;;20.80;14.18;;;;;;;15.93;67.54;101383.06;5031985;28;20487;-54
2022/06/05 04:07:39;;;;;;;21.63;14.90;;;;;;;15.91;67.56;101385.34;5031737;28;20037;-50
2022/06/05 04:10:05;;;;;;;21.48;14.43;;;;;;;15.89;67.59;101379.28;5032081;28;20095;-53
2022/06/05 04:12:31;;;;;;;22.73;14.93;;;;;;;15.87;67.96;101388.00;5032331;28;20028;-55
2022/06/05 04:14:59;;;;;;;23.25;14.63;;;;;;;15.87;68.06;101376.03;5032117;28;20029;-54
2022/06/05 04:17:24;;;;;;;22.73;14.50;;;;;;;15.84;68.06;101380.25;5032172;28;20028;-54
2022/06/05 04:19:52;;;;;;;22.73;15.20;;;;;;;15.80;68.28;101368.13;5031852;28;20033;-53
2022/06/05 04:22:17;;;;;;;25.10;14.80;;;;;;;15.79;68.56;101362.84;5031939;28;20369;-52
2022/06/05 04:24:42;;;;;;;23.45;14.57;;;;;;;15.79;68.40;101366.47;5031720;28;20104;-53
2022/06/05 04:27:07;;;;;;;23.10;14.80;;;;;;;15.73;68.54;101356.59;5032047;28;20029;-52
2022/06/05 04:29:33;;;;;;;23.52;15.10;;;;;;;15.69;68.67;101361.22;5031656;28;20025;-54
2022/06/05 04:31:58;;;;;;;21.45;15.00;;;;;;;15.66;69.01;101356.28;5031426;28;20064;-54
2022/06/05 04:34:23;;;;;;;22.70;15.18;;;;;;;15.63;69.08;101346.63;5031477;28;20484;-54
2022/06/05 04:36:49;;;;;;;22.65;14.75;;;;;;;15.66;69.55;101347.91;5031850;28;20056;-53
2022/06/05 04:39:15;;;;;;;23.05;15.23;;;;;;;15.69;69.16;101350.88;5031527;28;20464;-53
2022/06/05 04:41:41;;;;;;;22.17;15.77;;;;;;;15.68;69.24;101348.41;5030565;28;20389;-52
2022/06/05 04:44:11;;;;;;;22.25;14.90;;;;;;;15.65;69.61;101351.84;5031711;28;20033;-54
2022/06/05 04:46:37;;;;;;;23.73;14.90;;;;;;;15.67;69.49;101347.63;5031892;28;20107;-54
2022/06/05 04:49:06;;;;;;;21.40;14.45;;;;;;;15.68;69.65;101352.00;5030293;28;20440;-52
2022/06/05 04:51:31;;;;;;;22.73;15.48;;;;;;;15.69;69.33;101353.66;5031627;28;20099;-53
2022/06/05 04:53:57;;;;;;;24.58;15.13;;;;;;;15.71;69.21;101351.38;5031789;28;20049;-54
2022/06/05 04:56:24;;;;;;;22.33;14.93;;;;;;;15.72;69.20;101350.22;5031683;28;20037;-51
2022/06/05 04:58:50;;;;;;;23.08;14.93;;;;;;;15.71;69.10;101344.97;5031690;28;20060;-54
2022/06/05 05:01:22;;;;;;;21.55;15.10;;;;;;;15.68;69.47;101346.44;5031691;28;20436;-53
2022/06/05 05:03:52;;;;;;;22.75;15.10;;;;;;;15.59;69.57;101340.88;5032011;28;20484;-54
2022/06/05 05:06:17;;;;;;;24.38;15.07;;;;;;;15.66;69.65;101345.97;5031377;28;20076;-56
2022/06/05 05:08:42;;;;;;;22.42;15.13;;;;;;;15.66;69.57;101353.50;5031384;28;20056;-54
2022/06/05 05:11:08;;;;;;;23.35;14.82;;;;;;;15.69;69.59;101356.44;5031387;28;20037;-54
2022/06/05 05:13:33;;;;;;;23.77;15.20;;;;;;;15.67;69.82;101349.56;5031532;28;20470;-56
2022/06/05 05:15:59;;;;;;;21.25;14.90;;;;;;;15.70;69.76;101354.50;5031459;28;20528;-55
2022/06/05 05:18:25;;;;;;;23.75;15.80;;;;;;;15.70;69.72;101349.72;5031290;28;20499;-55
2022/06/05 05:20:50;;;;;;;23.17;15.55;;;;;;;15.73;69.58;101357.44;5031313;28;20396;-55
2022/06/05 05:23:16;;;;;;;22.92;15.38;;;;;;;15.78;69.44;101366.78;5029876;28;20025;-54
2022/06/05 05:25:41;;;;;;;23.05;14.95;;;;;;;15.81;69.51;101374.50;5030046;28;20152;-53
2022/06/05 05:28:07;;;;;;;24.30;15.52;;;;;;;15.73;69.55;101368.59;5031291;28;20022;-53
2022/06/05 05:30:33;;;;;;;23.38;14.63;;;;;;;15.75;69.57;101368.25;5031232;28;20417;-54
2022/06/05 05:32:59;;;;;;;22.75;14.70;;;;;;;15.76;69.83;101372.69;5031252;28;20022;-55
2022/06/05 05:35:25;;;;;;;21.05;14.68;;;;;;;15.75;69.89;101363.53;5031245;28;20400;-51
2022/06/05 05:37:50;;;;;;;23.00;15.40;;;;;;;15.78;69.66;101362.03;5030862;28;20319;-54
2022/06/05 05:42:59;;;;;;;23.02;15.25;;;;;;;15.95;69.13;101361.25;5033713;28;20465;-54
2022/06/05 05:45:24;;;;;;;22.83;15.60;;;;;;;16.03;69.29;101359.56;5034565;28;20468;-56
2022/06/05 05:47:49;;;;;;;23.33;14.90;;;;;;;16.10;68.63;101361.84;5034715;28;20208;-54
2022/06/05 05:50:15;;;;;;;22.08;15.00;;;;;;;16.12;68.56;101359.56;5034580;28;20029;-55
2022/06/05 05:52:42;;;;;;;21.88;15.32;;;;;;;16.13;68.45;101364.00;5032882;28;20025;-54
2022/06/05 05:55:19;;;;;;;22.77;14.82;;;;;;;16.17;68.15;101357.41;5034646;28;20037;-54
2022/06/05 05:57:49;;;;;;;22.75;14.65;;;;;;;16.23;68.16;101358.06;5034644;28;20029;-55
2022/06/05 06:00:17;;;;;;;21.52;14.43;;;;;;;16.24;67.82;101334.59;5034670;28;20052;-52
2022/06/05 06:02:43;;;;;;;22.67;14.73;;;;;;;16.31;67.84;101354.41;5034829;28;20136;-53
2022/06/05 06:05:12;;;;;;;22.02;14.45;;;;;;;16.39;67.36;101341.56;5034261;28;20029;-54
2022/06/05 06:07:38;;;;;;;22.02;14.27;;;;;;;16.44;67.24;101338.59;5034353;28;20033;-51
2022/06/05 06:10:04;;;;;;;23.30;14.65;;;;;;;16.52;67.04;101334.97;5034111;28;20534;-54
2022/06/05 06:12:29;;;;;;;23.08;14.82;;;;;;;16.59;66.75;101333.59;5034674;28;20057;-54
2022/06/05 06:14:55;;;;;;;21.42;14.63;;;;;;;16.66;66.45;101326.34;5034543;28;20061;-54
2022/06/05 06:17:21;;;;;;;22.30;14.93;;;;;;;16.74;66.38;101326.63;5034381;28;20033;-51
2022/06/05 06:19:46;;;;;;;22.25;14.70;;;;;;;16.83;66.47;101322.66;5034417;28;20495;-55
2022/06/05 06:22:12;;;;;;;22.80;15.63;;;;;;;16.83;66.24;101321.81;5034029;28;20033;-52
2022/06/05 06:24:37;;;;;;;22.42;15.13;;;;;;;16.87;66.14;101317.22;5032706;28;20029;-55
2022/06/05 06:27:02;;;;;;;23.20;15.40;;;;;;;16.99;65.93;101308.94;5034173;28;20033;-55
2022/06/05 06:29:28;;;;;;;22.20;15.05;;;;;;;17.07;65.66;101301.66;5034345;28;20163;-55
2022/06/05 06:31:54;;;;;;;22.65;14.98;;;;;;;17.17;65.77;101308.00;5033950;28;20021;-53
2022/06/05 06:34:19;;;;;;;22.58;15.88;;;;;;;17.27;64.96;101304.78;5033898;28;20025;-55
2022/06/05 06:36:44;;;;;;;21.70;15.27;;;;;;;17.33;64.51;101302.63;5034003;28;20045;-55
2022/06/05 06:39:10;;;;;;;21.90;15.20;;;;;;;17.38;64.74;101299.63;5033970;28;20021;-52
2022/06/05 06:41:37;;;;;;;22.33;15.65;;;;;;;17.45;64.30;101294.28;5033776;28;20025;-52
2022/06/05 06:44:03;;;;;;;22.08;15.05;;;;;;;17.52;64.36;101297.34;5033756;28;20025;-52
2022/06/05 06:46:29;;;;;;;21.35;15.30;;;;;;;17.64;64.46;101285.38;5033498;28;20091;-53
2022/06/05 06:48:54;;;;;;;22.05;15.07;;;;;;;17.66;63.80;101279.47;5033679;28;20311;-53
2022/06/05 06:51:19;;;;;;;21.15;14.88;;;;;;;17.74;63.78;101279.34;5033812;28;20049;-54
2022/06/05 06:53:45;;;;;;;22.85;15.27;;;;;;;17.84;63.61;101271.69;5033032;28;20026;-53
2022/06/05 06:56:18;;;;;;;21.63;14.90;;;;;;;17.99;63.23;101270.25;5033583;28;20338;-54
2022/06/05 06:58:44;;;;;;;21.63;14.63;;;;;;;18.18;63.18;101266.91;5033346;28;20033;-55
2022/06/05 07:01:10;;;;;;;23.38;15.85;;;;;;;18.21;62.48;101250.22;5033592;28;20369;-54
2022/06/05 07:03:36;;;;;;;21.92;15.32;;;;;;;18.25;62.48;101255.94;5033444;28;20109;-54
2022/06/05 07:06:05;;;;;;;23.52;15.88;;;;;;;18.25;62.52;101239.13;5033535;28;20053;-54
2022/06/05 07:08:30;;;;;;;22.73;15.52;;;;;;;18.26;62.54;101256.75;5032803;28;20086;-53
2022/06/05 07:10:56;;;;;;;21.88;15.27;;;;;;;18.35;62.17;101254.66;5021770;28;20536;-54
2022/06/05 07:13:21;;;;;;;21.98;15.63;;;;;;;18.44;62.06;101258.16;5020423;28;20427;-54
2022/06/05 07:15:47;;;;;;;21.05;15.35;;;;;;;18.48;62.02;101256.28;5026646;28;20033;-52
2022/06/05 07:18:12;;;;;;;22.48;15.90;;;;;;;18.53;62.19;101239.25;5031183;28;20093;-51
2022/06/05 07:20:41;;;;;;;21.92;15.30;;;;;;;18.66;62.13;101240.03;5028278;28;20472;-51
2022/06/05 07:23:08;;;;;;;23.17;16.20;;;;;;;18.74;61.43;101227.06;5030642;28;20152;-55
2022/06/05 07:25:34;;;;;;;22.02;16.02;;;;;;;18.81;61.68;101220.88;5030651;28;20057;-50
2022/06/05 07:28:00;;;;;;;23.73;15.90;;;;;;;19.01;61.20;101219.94;5030931;28;20043;-51
2022/06/05 07:30:25;;;;;;;21.80;15.90;;;;;;;19.10;60.62;101225.38;5030650;28;20053;-51
2022/06/05 07:32:52;;;;;;;21.42;15.77;;;;;;;19.12;60.89;101220.22;5030022;28;20552;-54
2022/06/05 07:35:18;;;;;;;22.52;16.30;;;;;;;19.22;60.54;101218.09;5030815;28;20025;-52
2022/06/05 07:37:43;;;;;;;23.27;16.13;;;;;;;19.32;60.54;101214.78;5030814;28;20040;-53
2022/06/05 07:40:10;;;;;;;21.55;16.00;;;;;;;19.35;60.30;101207.63;5030801;28;20022;-53
2022/06/05 07:42:37;;;;;;;21.88;15.75;;;;;;;19.50;60.53;101209.69;5030861;28;20025;-54
2022/06/05 07:45:03;;;;;;;23.08;15.75;;;;;;;19.66;60.43;101201.28;5030712;28;20401;-52
2022/06/05 07:47:28;;;;;;;22.92;16.00;;;;;;;19.72;59.45;101202.66;5030100;28;20048;-50
2022/06/05 07:49:54;;;;;;;23.48;16.42;;;;;;;19.84;59.79;101207.38;5031006;28;20083;-55
2022/06/05 07:55:03;;;;;;;23.55;16.73;;;;;;;19.92;58.99;101195.16;5030838;28;20392;-53
2022/06/05 07:57:29;;;;;;;23.67;16.52;;;;;;;19.86;59.16;101188.22;5030520;28;20033;-55
2022/06/05 07:59:54;;;;;;;22.27;16.98;;;;;;;19.86;59.51;101195.78;5030433;28;20108;-56
2022/06/05 08:02:25;;;;;;;21.75;16.35;;;;;;;19.88;59.09;101188.66;5030032;28;20053;-50
2022/06/05 08:04:52;;;;;;;22.20;16.15;;;;;;;20.04;59.22;101193.44;5029027;28;20132;-53
2022/06/05 08:07:20;;;;;;;22.55;16.95;;;;;;;20.07;59.41;101187.13;5029753;28;20055;-52
2022/06/05 08:09:46;;;;;;;23.45;17.08;;;;;;;20.31;59.03;101180.44;5030126;28;20381;-54
2022/06/05 08:12:14;;;;;;;23.02;17.75;;;;;;;20.47;59.10;101169.19;5030275;28;20060;-52
2022/06/05 08:14:41;;;;;;;23.25;17.48;;;;;;;20.61;58.09;101171.50;5028877;28;20053;-54
2022/06/05 08:17:09;;;;;;;24.33;17.05;;;;;;;20.78;57.82;101161.88;5020259;28;20428;-55
2022/06/05 08:19:36;;;;;;;24.50;18.10;;;;;;;21.02;57.66;101160.75;5018287;28;20092;-54
2022/06/05 08:22:02;;;;;;;22.90;16.85;;;;;;;21.25;57.46;101157.22;5026530;28;20092;-54
2022/06/05 08:24:28;;;;;;;24.50;17.75;;;;;;;21.48;56.29;101162.03;5019177;28;20053;-55
2022/06/05 08:26:53;;;;;;;23.30;17.30;;;;;;;21.62;55.62;101173.59;5020380;28;20072;-54
2022/06/05 08:29:19;;;;;;;24.15;18.08;;;;;;;21.70;55.61;101173.72;5019097;28;20472;-54
2022/06/05 08:31:45;;;;;;;23.02;16.92;;;;;;;21.71;55.31;101161.28;5020203;28;20025;-54
2022/06/05 08:34:12;;;;;;;22.70;16.50;;;;;;;21.83;55.08;101163.09;5018796;28;20026;-54
2022/06/05 08:36:38;;;;;;;22.17;16.90;;;;;;;21.87;55.39;101172.41;5018022;28;20151;-55
2022/06/05 08:42:05;;;;;;;21.73;16.45;;;;;;;22.02;55.06;101153.72;5020552;28;20186;-55
2022/06/05 08:44:36;;;;;;;22.15;16.77;;;;;;;22.15;54.73;101145.91;5020516;28;20083;-55
2022/06/05 08:47:13;;;;;;;23.20;17.10;;;;;;;22.22;54.55;101143.19;5018815;28;20036;-53
2022/06/05 08:49:47;;;;;;;22.05;17.40;;;;;;;22.15;54.72;101152.34;5019133;28;20026;-56
2022/06/05 08:52:22;;;;;;;22.65;17.58;;;;;;;22.18;54.81;101154.41;5018892;28;20116;-55
2022/06/05 08:54:56;;;;;;;23.02;17.05;;;;;;;22.18;54.91;101160.03;5018989;28;20468;-53
2022/06/05 08:57:43;;;;;;;22.75;17.02;;;;;;;22.33;55.45;101158.25;5022076;28;20064;-55
2022/06/05 09:00:26;;;;;;;23.20;17.48;;;;;;;22.20;55.22;101162.47;5021531;28;20033;-54
2022/06/05 09:03:02;;;;;;;22.52;17.15;;;;;;;22.20;55.06;101154.81;5022054;28;20029;-56
2022/06/05 09:05:47;;;;;;;23.13;17.13;;;;;;;22.12;55.52;101156.72;5030306;28;20041;-56
2022/06/05 09:08:16;;;;;;;21.90;16.73;;;;;;;22.11;55.38;101166.38;5030091;28;20357;-54
2022/06/05 09:10:47;;;;;;;24.00;19.05;;;;;;;22.17;55.51;101163.22;5030256;28;20032;-54
2022/06/05 09:13:18;;;;;;;23.75;16.85;;;;;;;22.27;55.61;101171.84;5030158;28;20116;-55
2022/06/05 09:15:50;;;;;;;22.73;16.30;;;;;;;22.30;55.64;101167.47;5030335;28;20033;-51
2022/06/05 09:18:21;;;;;;;21.83;17.15;;;;;;;22.16;55.69;101162.41;5025787;28;20116;-53
2022/06/05 09:20:55;;;;;;;22.85;16.83;;;;;;;22.12;56.14;101165.19;5029426;28;20065;-52
2022/06/05 09:24:04;;;;;;;22.92;17.25;;;;;;;22.14;56.22;101167.59;5034231;28;20022;-55
2022/06/05 09:27:02;;;;;;;22.33;17.35;;;;;;;22.07;56.28;101162.66;4985715;28;20083;-56
2022/06/05 09:29:45;;;;;;;23.35;17.80;;;;;;;22.01;56.76;101157.75;5033740;28;20101;-50
2022/06/05 09:32:29;;;;;;;22.77;17.45;;;;;;;22.01;56.91;101149.31;5034077;28;20051;-55
2022/06/05 09:35:06;;;;;;;22.15;16.58;;;;;;;21.99;57.26;101144.03;5033976;28;20461;-53
2022/06/05 09:37:44;;;;;;;22.65;17.65;;;;;;;22.07;57.41;101142.16;5033820;28;20025;-55
2022/06/05 09:40:32;;;;;;;22.90;18.20;;;;;;;22.03;57.34;101147.72;5033901;28;20037;-54
2022/06/05 09:43:31;;;;;;;22.80;17.48;;;;;;;22.03;57.70;101144.91;5030637;28;20113;-54
2022/06/05 09:46:24;;;;;;;21.50;16.48;;;;;;;22.08;57.79;101144.56;5023347;28;20037;-55
2022/06/05 09:49:09;;;;;;;22.40;16.70;;;;;;;22.01;57.64;101136.03;5022383;28;20046;-51
2022/06/05 09:51:40;;;;;;;24.80;17.48;;;;;;;21.94;58.11;101135.91;5023402;28;20030;-55
2022/06/05 09:54:29;;;;;;;22.27;16.48;;;;;;;21.97;58.25;101132.31;5021991;28;20064;-55
2022/06/05 10:00:14;;;;;;;22.75;17.98;;;;;;;21.66;58.44;101123.78;5023759;28;20135;-54
2022/06/05 10:02:42;;;;;;;23.83;18.25;;;;;;;21.60;59.27;101132.91;5021689;28;20029;-55
2022/06/05 10:05:21;;;;;;;24.55;18.02;;;;;;;21.50;59.28;101129.50;5024607;28;20018;-55
2022/06/05 10:07:55;;;;;;;24.20;18.50;;;;;;;21.29;59.67;101113.06;5022032;28;20038;-56
2022/06/05 10:10:33;;;;;;;;;;;;;;;21.41;58.87;101119.69;5022530;28;20104;-56
2022/06/05 10:13:28;;;;;;;22.60;17.45;;;;;;;21.31;59.88;101109.84;5021469;28;19923;-54
2022/06/05 10:16:01;;;;;;;23.35;17.95;;;;;;;21.12;60.90;101105.09;5009347;28;20142;-55
2022/06/05 10:18:44;;;;;;;24.45;18.00;;;;;;;21.10;61.14;101108.28;5018379;28;20025;-56
2022/06/05 10:21:11;;;;;;;23.85;18.20;;;;;;;21.08;61.25;101109.81;5033281;28;20025;-56
2022/06/05 10:23:45;;;;;;;24.63;18.13;;;;;;;21.11;61.30;101109.88;5033186;28;20030;-54
2022/06/05 10:26:33;;;;;;;24.50;19.60;;;;;;;21.07;61.58;101094.97;5032811;28;20053;-54
2022/06/05 10:29:24;;;;;;;24.70;19.02;;;;;;;21.14;61.67;101097.91;5032174;28;20028;-55
2022/06/05 10:31:56;;;;;;;24.60;18.92;;;;;;;21.13;61.88;101087.84;5032569;28;20096;-54
2022/06/05 10:34:46;;;;;;;23.52;18.55;;;;;;;21.17;62.21;101090.72;5032757;28;20022;-54
2022/06/05 10:37:23;;;;;;;24.27;18.75;;;;;;;21.29;62.72;101095.38;5031859;28;20394;-54
2022/06/05 10:40:23;;;;;;;25.38;19.23;;;;;;;21.29;62.45;101098.19;5032057;28;20051;-54
2022/06/05 10:42:58;;;;;;;23.58;19.55;;;;;;;21.19;62.80;101097.63;5031417;28;20124;-54
2022/06/05 10:45:30;;;;;;;24.40;19.83;;;;;;;21.06;64.12;101095.34;5031560;28;20021;-54
2022/06/05 10:48:16;;;;;;;25.23;19.85;;;;;;;21.04;64.43;101101.31;5031526;28;20025;-55
2022/06/05 10:50:55;;;;;;;25.88;21.02;;;;;;;20.94;65.47;101104.72;5031940;28;20033;-53
2022/06/05 10:53:51;;;;;;;25.40;21.27;;;;;;;20.88;65.73;101092.97;5031636;28;20063;-54
2022/06/05 10:56:41;;;;;;;24.33;19.83;;;;;;;20.75;66.71;101088.69;5030003;28;20049;-55
2022/06/05 10:59:16;;;;;;;27.90;20.35;;;;;;;20.62;67.79;101094.44;5030866;28;20537;-54
2022/06/05 11:01:48;;;;;;;24.60;20.45;;;;;;;20.56;68.01;101093.09;5030826;28;20040;-55
2022/06/05 11:04:46;;;;;;;25.08;20.63;;;;;;;20.56;67.18;101095.91;5031287;28;20059;-55
2022/06/05 11:07:30;;;;;;;24.75;20.48;;;;;;;20.53;67.50;101097.47;5031524;28;20033;-55
2022/06/05 11:10:18;;;;;;;;;;;;;;;20.58;66.48;101097.16;5031697;28;20034;-54
2022/06/05 11:16:26;;;;;;;26.33;21.38;;;;;;;20.37;69.21;101089.09;5031162;28;20063;-54
2022/06/05 11:19:30;;;;;;;27.98;21.15;;;;;;;20.28;68.86;101085.69;5007823;28;20049;-55
2022/06/05 11:22:00;;;;;;;25.08;21.15;;;;;;;20.22;70.22;101075.91;5031115;28;20099;-55
2022/06/05 11:24:33;;;;;;;27.08;22.30;;;;;;;20.18;70.83;101077.84;5029393;28;20464;-55
2022/06/05 11:27:13;;;;;;;26.25;21.20;;;;;;;20.23;70.17;101069.94;5030939;28;20072;-56
2022/06/05 11:30:19;;;;;;;25.67;21.67;;;;;;;20.22;71.16;101073.09;5030957;28;20025;-57
2022/06/05 11:33:11;;;;;;;25.88;22.33;;;;;;;20.16;71.84;101069.78;5030799;28;20037;-54
2022/06/05 11:36:16;;;;;;;26.17;22.65;;;;;;;20.03;73.70;101071.06;5013740;28;20080;-55
2022/06/05 11:39:04;;;;;;;26.98;22.63;;;;;;;19.92;76.20;101068.03;5011238;28;20116;-55
2022/06/05 11:41:40;;;;;;;27.13;23.73;;;;;;;19.84;77.80;101071.81;5023153;28;20037;-55
2022/06/05 11:44:26;;;;;;;27.73;23.70;;;;;;;19.76;79.20;101077.22;5030976;28;20017;-56
2022/06/05 11:47:00;;;;;;;28.58;25.02;;;;;;;19.69;81.27;101071.44;5030500;28;20033;-56
2022/06/05 11:49:44;;;;;;;26.75;23.63;;;;;;;19.61;79.34;101064.84;5030579;28;20031;-57
2022/06/05 11:52:14;;;;;;;;;;;;;;;19.59;75.72;101061.59;5030940;28;20160;-57